Fermeuse, Canada
Current Conditions -  °F | °C
As of 2:17 AM on Thursday 27 Nov 2014 (Local Time) from CYYT Reporting Station
Light Snow Light Snow  
Wind Chill: 33°   Ceiling: 6000
Heat Index: 37°   Visibility: 15mi
Dew Point: 30°   Wind: 6mph
Humidity: 75%   Direction: 360°N
Pressure: 30.12"   Gusts: NA
Location:  46.97°N, 52.97°W
Report Text: CYYT 270517Z 36005KT 15SM -SN OVC060 03/M01 A3012 RMK SC8 SLP204
Loading
Personal Weather Stations






























Interactive Weather Map New forecast layout! Learn more

10-Day Weather Forecast

Advertisements
Track Severe Weather on mobile